Tuesday, February 20, 2018, 4:28 AM EST

KFDK, Frederick, Frederick Municipal Airport

Location: Frederick, MD, United States Lat: 39.417
Local Time: 4:28 AM EST ( 9:28 GMT) Lon: -77.374
Time Zone: US/Eastern Elev: 301 ft

Show me the last for .
Show Decoded

2018-02-20 04:15 METAR KFDK 200915Z AUTO 21004KT 2 1/2SM BR OVC003 08/08 A3033 RMK AO2 =
2018-02-20 03:55 METAR KFDK 200855Z AUTO 21004KT 4SM BR OVC003 08/08 A3033 RMK AO2 =
2018-02-20 03:35 METAR KFDK 200835Z AUTO 21005KT 4SM BR OVC003 08/08 A3033 RMK AO2 =
2018-02-20 03:15 METAR KFDK 200815Z AUTO 21005KT 5SM BR OVC003 08/08 A3033 RMK AO2 =
2018-02-20 02:55 METAR KFDK 200755Z AUTO 21006KT 5SM BR OVC005 08/08 A3033 RMK AO2 =
2018-02-20 02:35 METAR KFDK 200735Z AUTO 21005KT 7SM OVC005 08/08 A3033 RMK AO2 =
2018-02-20 02:15 METAR KFDK 200715Z AUTO 22005KT 7SM OVC005 08/08 A3034 RMK AO2 =
2018-02-20 01:55 METAR KFDK 200655Z AUTO 20007KT 10SM OVC005 08/08 A3034 RMK AO2 =
2018-02-20 01:35 METAR KFDK 200635Z AUTO 21006KT 10SM OVC007 08/08 A3033 RMK AO2 =
2018-02-20 01:15 METAR KFDK 200615Z AUTO 21005KT 10SM OVC007 08/08 A3034 RMK AO2 =
2018-02-20 00:55 METAR KFDK 200555Z AUTO 19003KT 10SM OVC007 08/08 A3034 RMK AO2 =
2018-02-20 00:35 METAR KFDK 200535Z AUTO 22003KT 10SM OVC007 08/08 A3035 RMK AO2 LTG DSNT W =
2018-02-20 00:15 METAR KFDK 200515Z AUTO 00000KT 10SM OVC007 08/08 A3035 RMK AO2 =
2018-02-19 23:55 METAR KFDK 200455Z AUTO 00000KT 10SM OVC007 08/08 A3035 RMK AO2 =
2018-02-19 23:35 METAR KFDK 200435Z AUTO 19003KT 10SM OVC007 08/08 A3035 RMK AO2 =
2018-02-19 23:15 METAR KFDK 200415Z AUTO 00000KT 10SM OVC007 08/08 A3035 RMK AO2 =
2018-02-19 22:55 METAR KFDK 200355Z AUTO 18003KT 7SM OVC007 08/08 A3035 RMK AO2 LTG DSNT W =
2018-02-19 22:35 METAR KFDK 200335Z AUTO 00000KT 7SM OVC007 08/08 A3035 RMK AO2 =
2018-02-19 22:15 METAR KFDK 200315Z AUTO 00000KT 7SM OVC007 08/08 A3036 RMK AO2 =
2018-02-19 21:55 METAR KFDK 200255Z AUTO 18003KT 7SM OVC007 08/08 A3036 RMK AO2 LTG DSNT W =
2018-02-19 21:35 METAR KFDK 200235Z AUTO 19003KT 7SM OVC007 08/08 A3036 RMK AO2 LTG DSNT W =
2018-02-19 21:15 METAR KFDK 200215Z AUTO 17003KT 5SM BR OVC005 08/08 A3036 RMK AO2 LTG DSNT W =
2018-02-19 20:55 METAR KFDK 200155Z AUTO 18003KT 5SM BR OVC005 08/08 A3036 RMK AO2 =
2018-02-19 20:47 METAR KFDK 200147Z 20004KT 5SM BR OVC005 08/08 A3036 =
2018-02-19 19:55 METAR KFDK 200055Z 19004KT 5SM BR OVC005 08/08 A3036 =
2018-02-19 18:55 METAR KFDK 192355Z 20004KT 7SM OVC005 08/08 A3036 =
2018-02-19 17:47 METAR KFDK 192247Z 18007KT 5SM BR OVC007 08/08 A3035 =
2018-02-19 16:47 METAR KFDK 192147Z 18007KT 5SM BR OVC007 08/08 A3034 =
2018-02-19 15:47 METAR KFDK 192047Z 17006KT 2SM BR OVC007 08/08 A3035 =
2018-02-19 14:47 METAR KFDK 191947Z 18005KT 2SM BR OVC007 08/08 A3037 =
2018-02-19 13:47 METAR KFDK 191847Z 19006KT 10SM OVC009 07/03 A3038 =
2018-02-19 12:47 METAR KFDK 191747Z 19006KT 10SM OVC013 07/03 A3040 =
2018-02-19 11:47 METAR KFDK 191647Z 19006KT 10SM SCT019 OVC025 07/02 A3045 =
2018-02-19 10:47 METAR KFDK 191547Z 19007KT 10SM SCT016 OVC045 06/02 A3048 =
2018-02-19 09:47 METAR KFDK 191447Z 19006KT 10SM SCT016 OVC046 05/02 A3048 =
2018-02-19 08:47 METAR KFDK 191347Z 18006KT 7SM OVC050 05/02 A3048 =
2018-02-19 07:47 METAR KFDK 191247Z 18005KT 5SM BR OVC020 04/02 A3049 =
2018-02-19 06:50 METAR KFDK 191150Z AUTO 17005KT 10SM -RA BKN037 BKN049 OVC080 04/01 A3049 RMK
                 AO2 =
2018-02-19 06:35 METAR KFDK 191135Z AUTO 19004KT 10SM -RA SCT037 SCT049 BKN075 04/00 A3049 RMK
                 AO2 LTG DSNT W =
2018-02-19 06:15 METAR KFDK 191115Z AUTO 15005KT 10SM BKN037 04/00 A3046 RMK AO2 =
2018-02-19 05:55 METAR KFDK 191055Z AUTO 16005KT 10SM OVC039 04/00 A3049 RMK AO2 =
2018-02-19 05:35 METAR KFDK 191035Z AUTO 19005KT 10SM OVC039 04/02 A3049 RMK AO2 =
2018-02-19 05:15 METAR KFDK 191015Z AUTO 17005KT 10SM OVC039 04/02 A3048 RMK AO2 =
2018-02-19 04:55 METAR KFDK 190955Z AUTO 16005KT 10SM OVC041 04/02 A3048 RMK AO2 =
2018-02-19 04:35 METAR KFDK 190935Z AUTO 17005KT 10SM SCT036 OVC041 04/02 A3049 RMK AO2 =

Support USWX by starting your Amazon purchase here.